sensor_id;sensor_type;location;lat;lon;timestamp;P1;durP1;ratioP1;P2;durP2;ratioP2
51190;SDS011;37253;48.736;9.294;2023-07-31T00:01:38;1.25;;;0.90;;
51190;SDS011;37253;48.736;9.294;2023-07-31T00:03:38;2.47;;;0.88;;
51190;SDS011;37253;48.736;9.294;2023-07-31T00:05:38;1.00;;;0.70;;
51190;SDS011;37253;48.736;9.294;2023-07-31T00:07:38;2.00;;;0.70;;
51190;SDS011;37253;48.736;9.294;2023-07-31T00:09:39;0.80;;;0.70;;
51190;SDS011;37253;48.736;9.294;2023-07-31T00:11:39;2.67;;;0.88;;
51190;SDS011;37253;48.736;9.294;2023-07-31T00:13:39;1.05;;;0.80;;
51190;SDS011;37253;48.736;9.294;2023-07-31T00:15:40;1.48;;;0.90;;
51190;SDS011;37253;48.736;9.294;2023-07-31T00:17:40;0.93;;;0.68;;
51190;SDS011;37253;48.736;9.294;2023-07-31T00:19:40;1.40;;;0.90;;
51190;SDS011;37253;48.736;9.294;2023-07-31T00:21:40;1.30;;;0.70;;
51190;SDS011;37253;48.736;9.294;2023-07-31T00:23:41;3.65;;;0.93;;
51190;SDS011;37253;48.736;9.294;2023-07-31T00:25:41;1.80;;;0.90;;
51190;SDS011;37253;48.736;9.294;2023-07-31T00:27:41;1.40;;;0.90;;
51190;SDS011;37253;48.736;9.294;2023-07-31T00:29:44;3.55;;;0.70;;
51190;SDS011;37253;48.736;9.294;2023-07-31T00:31:44;2.28;;;0.70;;
51190;SDS011;37253;48.736;9.294;2023-07-31T00:33:44;1.80;;;1.00;;
51190;SDS011;37253;48.736;9.294;2023-07-31T00:35:45;1.40;;;1.00;;
51190;SDS011;37253;48.736;9.294;2023-07-31T00:37:45;1.10;;;0.70;;
51190;SDS011;37253;48.736;9.294;2023-07-31T00:39:45;2.63;;;0.73;;
51190;SDS011;37253;48.736;9.294;2023-07-31T00:41:46;1.23;;;0.88;;
51190;SDS011;37253;48.736;9.294;2023-07-31T00:43:46;2.20;;;0.70;;
51190;SDS011;37253;48.736;9.294;2023-07-31T00:45:46;1.60;;;0.88;;
51190;SDS011;37253;48.736;9.294;2023-07-31T00:47:47;1.40;;;0.77;;
51190;SDS011;37253;48.736;9.294;2023-07-31T00:49:47;0.80;;;0.80;;
51190;SDS011;37253;48.736;9.294;2023-07-31T00:51:48;1.00;;;0.80;;
51190;SDS011;37253;48.736;9.294;2023-07-31T00:53:48;1.17;;;0.80;;
51190;SDS011;37253;48.736;9.294;2023-07-31T00:55:49;1.45;;;0.70;;
51190;SDS011;37253;48.736;9.294;2023-07-31T00:57:49;1.55;;;0.90;;
51190;SDS011;37253;48.736;9.294;2023-07-31T00:59:51;1.37;;;0.80;;
51190;SDS011;37253;48.736;9.294;2023-07-31T01:01:52;1.15;;;0.80;;
51190;SDS011;37253;48.736;9.294;2023-07-31T01:03:52;1.23;;;0.70;;
51190;SDS011;37253;48.736;9.294;2023-07-31T01:06:14;1.27;;;0.77;;
51190;SDS011;37253;48.736;9.294;2023-07-31T01:08:24;1.38;;;0.82;;
51190;SDS011;37253;48.736;9.294;2023-07-31T01:10:34;1.45;;;0.80;;
51190;SDS011;37253;48.736;9.294;2023-07-31T01:12:57;1.30;;;0.98;;
51190;SDS011;37253;48.736;9.294;2023-07-31T01:17:01;1.45;;;0.70;;
51190;SDS011;37253;48.736;9.294;2023-07-31T01:19:01;1.17;;;0.80;;
51190;SDS011;37253;48.736;9.294;2023-07-31T01:21:03;2.85;;;1.00;;
51190;SDS011;37253;48.736;9.294;2023-07-31T01:23:23;2.00;;;0.73;;
51190;SDS011;37253;48.736;9.294;2023-07-31T01:27:44;1.00;;;0.80;;
51190;SDS011;37253;48.736;9.294;2023-07-31T01:29:55;1.48;;;0.85;;
51190;SDS011;37253;48.736;9.294;2023-07-31T01:31:57;1.30;;;0.80;;
51190;SDS011;37253;48.736;9.294;2023-07-31T01:34:01;1.20;;;0.68;;
51190;SDS011;37253;48.736;9.294;2023-07-31T01:36:02;1.48;;;0.82;;
51190;SDS011;37253;48.736;9.294;2023-07-31T01:38:02;1.25;;;0.85;;
51190;SDS011;37253;48.736;9.294;2023-07-31T01:40:03;1.42;;;0.80;;
51190;SDS011;37253;48.736;9.294;2023-07-31T01:42:05;0.90;;;0.80;;
51190;SDS011;37253;48.736;9.294;2023-07-31T01:44:05;1.17;;;0.80;;
51190;SDS011;37253;48.736;9.294;2023-07-31T01:46:06;1.40;;;0.95;;
51190;SDS011;37253;48.736;9.294;2023-07-31T01:48:06;1.63;;;0.70;;
51190;SDS011;37253;48.736;9.294;2023-07-31T01:50:06;2.13;;;1.00;;
51190;SDS011;37253;48.736;9.294;2023-07-31T01:52:07;1.15;;;0.70;;
51190;SDS011;37253;48.736;9.294;2023-07-31T01:54:07;1.75;;;0.90;;
51190;SDS011;37253;48.736;9.294;2023-07-31T01:56:07;1.67;;;0.70;;
51190;SDS011;37253;48.736;9.294;2023-07-31T01:58:08;1.48;;;0.85;;
51190;SDS011;37253;48.736;9.294;2023-07-31T02:00:08;1.13;;;0.80;;
51190;SDS011;37253;48.736;9.294;2023-07-31T02:02:08;0.98;;;0.70;;
51190;SDS011;37253;48.736;9.294;2023-07-31T02:04:09;1.60;;;0.80;;
51190;SDS011;37253;48.736;9.294;2023-07-31T02:06:09;1.00;;;0.90;;
51190;SDS011;37253;48.736;9.294;2023-07-31T02:08:09;1.60;;;0.82;;
51190;SDS011;37253;48.736;9.294;2023-07-31T02:10:10;1.65;;;0.80;;
51190;SDS011;37253;48.736;9.294;2023-07-31T02:12:10;2.75;;;0.80;;
51190;SDS011;37253;48.736;9.294;2023-07-31T02:14:10;1.40;;;0.82;;
51190;SDS011;37253;48.736;9.294;2023-07-31T02:16:11;1.85;;;0.88;;
51190;SDS011;37253;48.736;9.294;2023-07-31T02:18:11;1.52;;;0.90;;
51190;SDS011;37253;48.736;9.294;2023-07-31T02:20:11;1.55;;;0.70;;
51190;SDS011;37253;48.736;9.294;2023-07-31T02:22:12;1.20;;;0.68;;
51190;SDS011;37253;48.736;9.294;2023-07-31T02:24:12;2.47;;;1.00;;
51190;SDS011;37253;48.736;9.294;2023-07-31T02:26:12;1.08;;;0.80;;
51190;SDS011;37253;48.736;9.294;2023-07-31T02:28:12;2.08;;;1.10;;
51190;SDS011;37253;48.736;9.294;2023-07-31T02:30:13;1.45;;;0.85;;
51190;SDS011;37253;48.736;9.294;2023-07-31T02:32:13;1.45;;;0.73;;
51190;SDS011;37253;48.736;9.294;2023-07-31T02:34:13;1.02;;;0.80;;
51190;SDS011;37253;48.736;9.294;2023-07-31T02:36:14;2.35;;;0.70;;
51190;SDS011;37253;48.736;9.294;2023-07-31T02:38:14;1.20;;;0.80;;
51190;SDS011;37253;48.736;9.294;2023-07-31T02:40:14;1.00;;;0.90;;
51190;SDS011;37253;48.736;9.294;2023-07-31T02:42:15;2.25;;;0.70;;
51190;SDS011;37253;48.736;9.294;2023-07-31T02:44:15;1.10;;;0.70;;
51190;SDS011;37253;48.736;9.294;2023-07-31T02:46:15;1.42;;;0.70;;
51190;SDS011;37253;48.736;9.294;2023-07-31T02:48:16;0.90;;;0.80;;
51190;SDS011;37253;48.736;9.294;2023-07-31T02:50:16;1.13;;;0.82;;
51190;SDS011;37253;48.736;9.294;2023-07-31T02:52:16;1.25;;;0.80;;
51190;SDS011;37253;48.736;9.294;2023-07-31T02:54:17;1.00;;;0.73;;
51190;SDS011;37253;48.736;9.294;2023-07-31T02:56:17;1.08;;;0.90;;
51190;SDS011;37253;48.736;9.294;2023-07-31T02:58:17;2.55;;;0.90;;
51190;SDS011;37253;48.736;9.294;2023-07-31T03:00:18;1.45;;;0.70;;
51190;SDS011;37253;48.736;9.294;2023-07-31T03:02:18;2.97;;;0.70;;
51190;SDS011;37253;48.736;9.294;2023-07-31T03:04:19;1.42;;;0.68;;
51190;SDS011;37253;48.736;9.294;2023-07-31T03:06:19;2.55;;;0.80;;
51190;SDS011;37253;48.736;9.294;2023-07-31T03:08:20;2.08;;;0.80;;
51190;SDS011;37253;48.736;9.294;2023-07-31T03:10:20;1.45;;;0.90;;
51190;SDS011;37253;48.736;9.294;2023-07-31T03:12:20;2.05;;;0.70;;
51190;SDS011;37253;48.736;9.294;2023-07-31T03:14:21;1.52;;;0.77;;
51190;SDS011;37253;48.736;9.294;2023-07-31T03:16:21;1.50;;;0.68;;
51190;SDS011;37253;48.736;9.294;2023-07-31T03:18:21;1.15;;;0.70;;
51190;SDS011;37253;48.736;9.294;2023-07-31T03:20:21;1.25;;;0.73;;
51190;SDS011;37253;48.736;9.294;2023-07-31T03:22:22;0.82;;;0.70;;
51190;SDS011;37253;48.736;9.294;2023-07-31T03:24:22;1.63;;;0.85;;
51190;SDS011;37253;48.736;9.294;2023-07-31T03:26:22;0.70;;;0.70;;
51190;SDS011;37253;48.736;9.294;2023-07-31T03:28:23;0.80;;;0.60;;
51190;SDS011;37253;48.736;9.294;2023-07-31T03:30:23;1.35;;;0.80;;
51190;SDS011;37253;48.736;9.294;2023-07-31T03:32:23;2.40;;;1.00;;
51190;SDS011;37253;48.736;9.294;2023-07-31T03:34:24;1.10;;;0.70;;
51190;SDS011;37253;48.736;9.294;2023-07-31T03:36:24;1.58;;;0.80;;
51190;SDS011;37253;48.736;9.294;2023-07-31T03:38:24;1.85;;;0.80;;
51190;SDS011;37253;48.736;9.294;2023-07-31T03:40:24;0.90;;;0.70;;
51190;SDS011;37253;48.736;9.294;2023-07-31T03:42:25;2.63;;;0.70;;
51190;SDS011;37253;48.736;9.294;2023-07-31T03:44:25;3.90;;;0.90;;
51190;SDS011;37253;48.736;9.294;2023-07-31T03:46:26;2.08;;;0.90;;
51190;SDS011;37253;48.736;9.294;2023-07-31T03:48:26;0.95;;;0.73;;
51190;SDS011;37253;48.736;9.294;2023-07-31T03:50:26;1.98;;;1.02;;
51190;SDS011;37253;48.736;9.294;2023-07-31T03:52:27;0.85;;;0.70;;
51190;SDS011;37253;48.736;9.294;2023-07-31T03:54:27;1.33;;;0.80;;
51190;SDS011;37253;48.736;9.294;2023-07-31T03:56:27;1.30;;;0.80;;
51190;SDS011;37253;48.736;9.294;2023-07-31T03:58:28;1.40;;;0.60;;
51190;SDS011;37253;48.736;9.294;2023-07-31T04:00:28;1.13;;;0.80;;
51190;SDS011;37253;48.736;9.294;2023-07-31T04:02:28;1.92;;;0.73;;
51190;SDS011;37253;48.736;9.294;2023-07-31T04:04:29;1.35;;;0.80;;
51190;SDS011;37253;48.736;9.294;2023-07-31T04:06:29;0.90;;;0.75;;
51190;SDS011;37253;48.736;9.294;2023-07-31T04:08:29;2.45;;;0.70;;
51190;SDS011;37253;48.736;9.294;2023-07-31T04:10:29;0.70;;;0.60;;
51190;SDS011;37253;48.736;9.294;2023-07-31T04:12:31;0.98;;;0.70;;
51190;SDS011;37253;48.736;9.294;2023-07-31T04:14:31;1.10;;;0.88;;
51190;SDS011;37253;48.736;9.294;2023-07-31T04:16:32;2.78;;;0.82;;
51190;SDS011;37253;48.736;9.294;2023-07-31T04:18:32;1.83;;;0.70;;
51190;SDS011;37253;48.736;9.294;2023-07-31T04:20:32;1.88;;;0.80;;
51190;SDS011;37253;48.736;9.294;2023-07-31T04:22:33;1.58;;;0.70;;
51190;SDS011;37253;48.736;9.294;2023-07-31T04:24:33;2.80;;;0.80;;
51190;SDS011;37253;48.736;9.294;2023-07-31T04:26:33;1.02;;;0.82;;
51190;SDS011;37253;48.736;9.294;2023-07-31T04:28:33;0.82;;;0.75;;
51190;SDS011;37253;48.736;9.294;2023-07-31T04:30:34;1.40;;;0.80;;
51190;SDS011;37253;48.736;9.294;2023-07-31T04:32:34;3.10;;;0.80;;
51190;SDS011;37253;48.736;9.294;2023-07-31T04:34:35;1.00;;;0.75;;
51190;SDS011;37253;48.736;9.294;2023-07-31T04:36:35;0.85;;;0.77;;
51190;SDS011;37253;48.736;9.294;2023-07-31T04:38:35;1.60;;;0.70;;
51190;SDS011;37253;48.736;9.294;2023-07-31T04:40:36;0.77;;;0.73;;
51190;SDS011;37253;48.736;9.294;2023-07-31T04:42:36;2.15;;;0.80;;
51190;SDS011;37253;48.736;9.294;2023-07-31T04:44:36;1.70;;;0.80;;
51190;SDS011;37253;48.736;9.294;2023-07-31T04:46:37;0.80;;;0.70;;
51190;SDS011;37253;48.736;9.294;2023-07-31T04:48:37;1.65;;;1.00;;
51190;SDS011;37253;48.736;9.294;2023-07-31T04:50:38;1.00;;;0.82;;
51190;SDS011;37253;48.736;9.294;2023-07-31T04:52:39;1.92;;;0.90;;
51190;SDS011;37253;48.736;9.294;2023-07-31T04:54:39;1.38;;;0.80;;
51190;SDS011;37253;48.736;9.294;2023-07-31T04:56:40;2.10;;;0.60;;
51190;SDS011;37253;48.736;9.294;2023-07-31T04:58:40;0.95;;;0.60;;
51190;SDS011;37253;48.736;9.294;2023-07-31T05:00:40;1.00;;;0.70;;
51190;SDS011;37253;48.736;9.294;2023-07-31T05:02:41;1.02;;;0.90;;
51190;SDS011;37253;48.736;9.294;2023-07-31T05:04:41;1.23;;;0.93;;
51190;SDS011;37253;48.736;9.294;2023-07-31T05:06:41;1.65;;;0.82;;
51190;SDS011;37253;48.736;9.294;2023-07-31T05:08:42;3.33;;;0.80;;
51190;SDS011;37253;48.736;9.294;2023-07-31T05:10:42;0.98;;;0.70;;
51190;SDS011;37253;48.736;9.294;2023-07-31T05:12:42;0.80;;;0.75;;
51190;SDS011;37253;48.736;9.294;2023-07-31T05:14:43;0.88;;;0.73;;
51190;SDS011;37253;48.736;9.294;2023-07-31T05:16:43;1.05;;;0.95;;
51190;SDS011;37253;48.736;9.294;2023-07-31T05:18:43;0.80;;;0.80;;
51190;SDS011;37253;48.736;9.294;2023-07-31T05:20:43;1.98;;;0.80;;
51190;SDS011;37253;48.736;9.294;2023-07-31T05:22:44;2.80;;;0.90;;
51190;SDS011;37253;48.736;9.294;2023-07-31T05:24:44;1.17;;;0.82;;
51190;SDS011;37253;48.736;9.294;2023-07-31T05:26:44;0.82;;;0.70;;
51190;SDS011;37253;48.736;9.294;2023-07-31T05:28:45;1.20;;;0.77;;
51190;SDS011;37253;48.736;9.294;2023-07-31T05:30:45;1.17;;;0.80;;
51190;SDS011;37253;48.736;9.294;2023-07-31T05:32:45;0.85;;;0.63;;
51190;SDS011;37253;48.736;9.294;2023-07-31T05:34:46;1.10;;;0.73;;
51190;SDS011;37253;48.736;9.294;2023-07-31T05:36:46;2.65;;;0.73;;
51190;SDS011;37253;48.736;9.294;2023-07-31T05:38:46;1.75;;;0.70;;
51190;SDS011;37253;48.736;9.294;2023-07-31T05:40:47;1.00;;;0.70;;
51190;SDS011;37253;48.736;9.294;2023-07-31T05:42:47;1.38;;;0.80;;
51190;SDS011;37253;48.736;9.294;2023-07-31T05:44:48;1.60;;;0.77;;
51190;SDS011;37253;48.736;9.294;2023-07-31T05:46:48;0.82;;;0.82;;
51190;SDS011;37253;48.736;9.294;2023-07-31T05:48:48;1.10;;;0.88;;
51190;SDS011;37253;48.736;9.294;2023-07-31T05:50:48;1.23;;;0.85;;
51190;SDS011;37253;48.736;9.294;2023-07-31T05:52:49;1.48;;;0.75;;
51190;SDS011;37253;48.736;9.294;2023-07-31T05:54:49;1.10;;;0.70;;
51190;SDS011;37253;48.736;9.294;2023-07-31T05:56:50;1.17;;;0.80;;
51190;SDS011;37253;48.736;9.294;2023-07-31T05:58:50;1.35;;;0.80;;
51190;SDS011;37253;48.736;9.294;2023-07-31T06:00:51;1.13;;;0.70;;
51190;SDS011;37253;48.736;9.294;2023-07-31T06:02:51;1.92;;;0.80;;
51190;SDS011;37253;48.736;9.294;2023-07-31T06:04:51;1.30;;;0.77;;
51190;SDS011;37253;48.736;9.294;2023-07-31T06:06:52;1.27;;;0.80;;
51190;SDS011;37253;48.736;9.294;2023-07-31T06:08:52;1.00;;;0.70;;
51190;SDS011;37253;48.736;9.294;2023-07-31T06:10:52;1.63;;;0.68;;
51190;SDS011;37253;48.736;9.294;2023-07-31T06:12:53;2.05;;;0.80;;
51190;SDS011;37253;48.736;9.294;2023-07-31T06:14:53;4.85;;;1.10;;
51190;SDS011;37253;48.736;9.294;2023-07-31T06:16:54;1.67;;;0.80;;
51190;SDS011;37253;48.736;9.294;2023-07-31T06:18:54;2.58;;;1.00;;
51190;SDS011;37253;48.736;9.294;2023-07-31T06:20:54;1.92;;;0.90;;
51190;SDS011;37253;48.736;9.294;2023-07-31T06:22:55;3.22;;;1.13;;
51190;SDS011;37253;48.736;9.294;2023-07-31T06:24:56;2.10;;;1.08;;
51190;SDS011;37253;48.736;9.294;2023-07-31T06:26:56;2.03;;;0.90;;
51190;SDS011;37253;48.736;9.294;2023-07-31T06:28:57;4.38;;;0.90;;
51190;SDS011;37253;48.736;9.294;2023-07-31T06:30:58;2.50;;;0.98;;
51190;SDS011;37253;48.736;9.294;2023-07-31T06:32:58;3.28;;;0.80;;
51190;SDS011;37253;48.736;9.294;2023-07-31T06:34:58;5.90;;;1.10;;
51190;SDS011;37253;48.736;9.294;2023-07-31T06:36:59;2.53;;;1.00;;
51190;SDS011;37253;48.736;9.294;2023-07-31T06:38:59;1.73;;;0.82;;
51190;SDS011;37253;48.736;9.294;2023-07-31T06:40:59;3.00;;;0.90;;
51190;SDS011;37253;48.736;9.294;2023-07-31T06:43:00;6.43;;;1.02;;
51190;SDS011;37253;48.736;9.294;2023-07-31T06:45:06;9.15;;;1.00;;
51190;SDS011;37253;48.736;9.294;2023-07-31T06:47:07;13.00;;;1.00;;
51190;SDS011;37253;48.736;9.294;2023-07-31T06:49:07;2.80;;;0.95;;
51190;SDS011;37253;48.736;9.294;2023-07-31T06:51:08;4.95;;;0.95;;
51190;SDS011;37253;48.736;9.294;2023-07-31T06:53:08;3.45;;;1.00;;
51190;SDS011;37253;48.736;9.294;2023-07-31T06:55:18;3.13;;;0.80;;
51190;SDS011;37253;48.736;9.294;2023-07-31T06:57:20;5.32;;;1.17;;
51190;SDS011;37253;48.736;9.294;2023-07-31T06:59:20;2.30;;;0.93;;
51190;SDS011;37253;48.736;9.294;2023-07-31T07:01:20;3.80;;;0.90;;
51190;SDS011;37253;48.736;9.294;2023-07-31T07:03:21;4.30;;;1.00;;
51190;SDS011;37253;48.736;9.294;2023-07-31T07:05:21;3.08;;;1.00;;
51190;SDS011;37253;48.736;9.294;2023-07-31T07:07:21;4.60;;;1.20;;
51190;SDS011;37253;48.736;9.294;2023-07-31T07:09:22;5.93;;;0.90;;
51190;SDS011;37253;48.736;9.294;2023-07-31T07:11:22;3.05;;;1.00;;
51190;SDS011;37253;48.736;9.294;2023-07-31T07:13:22;5.57;;;1.02;;
51190;SDS011;37253;48.736;9.294;2023-07-31T07:15:23;3.03;;;0.90;;
51190;SDS011;37253;48.736;9.294;2023-07-31T07:17:23;4.18;;;1.13;;
51190;SDS011;37253;48.736;9.294;2023-07-31T07:19:24;2.88;;;0.98;;
51190;SDS011;37253;48.736;9.294;2023-07-31T07:21:24;2.70;;;1.00;;
51190;SDS011;37253;48.736;9.294;2023-07-31T07:23:25;3.60;;;1.00;;
51190;SDS011;37253;48.736;9.294;2023-07-31T07:25:26;3.00;;;1.10;;
51190;SDS011;37253;48.736;9.294;2023-07-31T07:27:26;4.80;;;1.02;;
51190;SDS011;37253;48.736;9.294;2023-07-31T07:29:27;2.67;;;1.00;;
51190;SDS011;37253;48.736;9.294;2023-07-31T07:31:27;3.42;;;1.00;;
51190;SDS011;37253;48.736;9.294;2023-07-31T07:33:28;1.67;;;0.90;;
51190;SDS011;37253;48.736;9.294;2023-07-31T07:35:28;2.17;;;1.00;;
51190;SDS011;37253;48.736;9.294;2023-07-31T07:37:29;3.28;;;1.25;;
51190;SDS011;37253;48.736;9.294;2023-07-31T07:39:29;4.70;;;0.90;;
51190;SDS011;37253;48.736;9.294;2023-07-31T07:41:30;3.42;;;0.85;;
51190;SDS011;37253;48.736;9.294;2023-07-31T07:43:30;5.85;;;1.08;;
51190;SDS011;37253;48.736;9.294;2023-07-31T07:45:30;2.75;;;1.00;;
51190;SDS011;37253;48.736;9.294;2023-07-31T07:47:30;3.30;;;0.90;;
51190;SDS011;37253;48.736;9.294;2023-07-31T07:49:31;3.55;;;1.30;;
51190;SDS011;37253;48.736;9.294;2023-07-31T07:51:31;3.20;;;1.00;;
51190;SDS011;37253;48.736;9.294;2023-07-31T07:53:32;4.75;;;0.90;;
51190;SDS011;37253;48.736;9.294;2023-07-31T07:55:32;3.22;;;0.90;;
51190;SDS011;37253;48.736;9.294;2023-07-31T07:57:32;3.63;;;1.02;;
51190;SDS011;37253;48.736;9.294;2023-07-31T07:59:32;2.35;;;1.00;;
51190;SDS011;37253;48.736;9.294;2023-07-31T08:01:33;1.80;;;0.90;;
51190;SDS011;37253;48.736;9.294;2023-07-31T08:03:33;1.58;;;0.88;;
51190;SDS011;37253;48.736;9.294;2023-07-31T08:05:33;1.52;;;0.85;;
51190;SDS011;37253;48.736;9.294;2023-07-31T08:07:34;4.22;;;1.20;;
51190;SDS011;37253;48.736;9.294;2023-07-31T08:09:34;2.35;;;1.00;;
51190;SDS011;37253;48.736;9.294;2023-07-31T08:11:35;2.60;;;1.00;;
51190;SDS011;37253;48.736;9.294;2023-07-31T08:13:35;4.53;;;0.98;;
51190;SDS011;37253;48.736;9.294;2023-07-31T08:15:36;1.63;;;0.70;;
51190;SDS011;37253;48.736;9.294;2023-07-31T08:17:37;3.25;;;1.10;;
51190;SDS011;37253;48.736;9.294;2023-07-31T08:19:37;6.32;;;1.27;;
51190;SDS011;37253;48.736;9.294;2023-07-31T08:21:37;4.30;;;1.20;;
51190;SDS011;37253;48.736;9.294;2023-07-31T08:23:38;6.03;;;1.40;;
51190;SDS011;37253;48.736;9.294;2023-07-31T08:25:38;11.20;;;1.30;;
51190;SDS011;37253;48.736;9.294;2023-07-31T08:27:38;4.07;;;1.35;;
51190;SDS011;37253;48.736;9.294;2023-07-31T08:29:43;3.97;;;1.05;;
51190;SDS011;37253;48.736;9.294;2023-07-31T08:31:43;3.13;;;1.10;;
51190;SDS011;37253;48.736;9.294;2023-07-31T08:33:43;2.05;;;1.17;;
51190;SDS011;37253;48.736;9.294;2023-07-31T08:35:44;4.68;;;1.30;;
51190;SDS011;37253;48.736;9.294;2023-07-31T08:37:44;7.70;;;1.20;;
51190;SDS011;37253;48.736;9.294;2023-07-31T08:39:44;8.15;;;1.33;;
51190;SDS011;37253;48.736;9.294;2023-07-31T08:41:45;2.83;;;0.95;;
51190;SDS011;37253;48.736;9.294;2023-07-31T08:43:45;1.75;;;1.00;;
51190;SDS011;37253;48.736;9.294;2023-07-31T08:45:46;3.33;;;1.20;;
51190;SDS011;37253;48.736;9.294;2023-07-31T08:47:47;7.30;;;1.05;;
51190;SDS011;37253;48.736;9.294;2023-07-31T08:49:49;5.78;;;1.38;;
51190;SDS011;37253;48.736;9.294;2023-07-31T08:51:51;3.95;;;1.00;;
51190;SDS011;37253;48.736;9.294;2023-07-31T08:53:52;7.93;;;1.45;;
51190;SDS011;37253;48.736;9.294;2023-07-31T08:55:53;7.47;;;1.17;;
51190;SDS011;37253;48.736;9.294;2023-07-31T08:57:54;4.10;;;1.35;;
51190;SDS011;37253;48.736;9.294;2023-07-31T08:59:55;3.38;;;1.30;;
51190;SDS011;37253;48.736;9.294;2023-07-31T09:01:58;5.72;;;1.20;;
51190;SDS011;37253;48.736;9.294;2023-07-31T09:06:01;12.40;;;1.48;;
51190;SDS011;37253;48.736;9.294;2023-07-31T09:08:03;11.90;;;1.42;;
51190;SDS011;37253;48.736;9.294;2023-07-31T09:10:04;6.85;;;1.50;;
51190;SDS011;37253;48.736;9.294;2023-07-31T09:12:05;7.75;;;1.70;;
51190;SDS011;37253;48.736;9.294;2023-07-31T09:14:08;8.80;;;1.40;;
51190;SDS011;37253;48.736;9.294;2023-07-31T09:16:09;3.50;;;1.45;;
51190;SDS011;37253;48.736;9.294;2023-07-31T09:18:10;5.57;;;1.95;;
51190;SDS011;37253;48.736;9.294;2023-07-31T09:20:17;4.40;;;1.23;;
51190;SDS011;37253;48.736;9.294;2023-07-31T09:22:28;10.05;;;1.65;;
51190;SDS011;37253;48.736;9.294;2023-07-31T09:24:32;9.43;;;1.50;;
51190;SDS011;37253;48.736;9.294;2023-07-31T09:26:34;7.65;;;1.90;;
51190;SDS011;37253;48.736;9.294;2023-07-31T09:28:36;8.73;;;1.87;;
51190;SDS011;37253;48.736;9.294;2023-07-31T09:30:44;12.18;;;1.95;;
51190;SDS011;37253;48.736;9.294;2023-07-31T09:32:48;9.93;;;1.95;;
51190;SDS011;37253;48.736;9.294;2023-07-31T09:34:50;8.68;;;1.80;;
51190;SDS011;37253;48.736;9.294;2023-07-31T09:36:50;6.90;;;2.08;;
51190;SDS011;37253;48.736;9.294;2023-07-31T09:38:52;8.40;;;1.60;;
51190;SDS011;37253;48.736;9.294;2023-07-31T09:40:52;7.80;;;1.92;;
51190;SDS011;37253;48.736;9.294;2023-07-31T09:42:54;7.20;;;1.70;;
51190;SDS011;37253;48.736;9.294;2023-07-31T09:45:06;8.57;;;1.80;;
51190;SDS011;37253;48.736;9.294;2023-07-31T09:47:20;6.03;;;1.70;;
51190;SDS011;37253;48.736;9.294;2023-07-31T09:49:23;5.82;;;1.75;;
51190;SDS011;37253;48.736;9.294;2023-07-31T09:51:28;10.88;;;2.17;;
51190;SDS011;37253;48.736;9.294;2023-07-31T09:53:28;5.43;;;1.70;;
51190;SDS011;37253;48.736;9.294;2023-07-31T09:55:30;13.93;;;2.13;;
51190;SDS011;37253;48.736;9.294;2023-07-31T09:57:34;5.03;;;1.85;;
51190;SDS011;37253;48.736;9.294;2023-07-31T10:01:38;5.10;;;2.03;;
51190;SDS011;37253;48.736;9.294;2023-07-31T10:03:39;10.40;;;1.98;;
51190;SDS011;37253;48.736;9.294;2023-07-31T10:05:42;7.78;;;2.10;;
51190;SDS011;37253;48.736;9.294;2023-07-31T10:07:49;5.70;;;1.70;;
51190;SDS011;37253;48.736;9.294;2023-07-31T10:09:54;8.70;;;1.90;;
51190;SDS011;37253;48.736;9.294;2023-07-31T10:12:01;10.55;;;2.28;;
51190;SDS011;37253;48.736;9.294;2023-07-31T10:14:03;7.95;;;1.70;;
51190;SDS011;37253;48.736;9.294;2023-07-31T10:16:03;8.43;;;1.90;;
51190;SDS011;37253;48.736;9.294;2023-07-31T10:18:07;5.53;;;2.08;;
51190;SDS011;37253;48.736;9.294;2023-07-31T10:20:08;7.82;;;2.08;;
51190;SDS011;37253;48.736;9.294;2023-07-31T10:22:09;6.28;;;1.92;;
51190;SDS011;37253;48.736;9.294;2023-07-31T10:24:10;6.63;;;1.80;;
51190;SDS011;37253;48.736;9.294;2023-07-31T10:26:11;7.95;;;1.92;;
51190;SDS011;37253;48.736;9.294;2023-07-31T10:28:13;5.22;;;1.80;;
51190;SDS011;37253;48.736;9.294;2023-07-31T10:30:15;3.72;;;1.70;;
51190;SDS011;37253;48.736;9.294;2023-07-31T10:32:16;3.88;;;1.42;;
51190;SDS011;37253;48.736;9.294;2023-07-31T10:34:17;12.57;;;2.03;;
51190;SDS011;37253;48.736;9.294;2023-07-31T10:36:18;4.10;;;1.40;;
51190;SDS011;37253;48.736;9.294;2023-07-31T10:38:19;6.25;;;1.70;;
51190;SDS011;37253;48.736;9.294;2023-07-31T10:40:23;5.88;;;1.70;;
51190;SDS011;37253;48.736;9.294;2023-07-31T10:42:29;3.35;;;1.63;;
51190;SDS011;37253;48.736;9.294;2023-07-31T10:44:30;6.93;;;1.80;;
51190;SDS011;37253;48.736;9.294;2023-07-31T10:46:30;7.32;;;1.95;;
51190;SDS011;37253;48.736;9.294;2023-07-31T10:48:32;3.67;;;1.63;;
51190;SDS011;37253;48.736;9.294;2023-07-31T10:50:37;5.60;;;1.55;;
51190;SDS011;37253;48.736;9.294;2023-07-31T10:52:38;4.75;;;1.60;;
51190;SDS011;37253;48.736;9.294;2023-07-31T10:54:39;3.88;;;1.77;;
51190;SDS011;37253;48.736;9.294;2023-07-31T10:56:39;5.00;;;1.55;;
51190;SDS011;37253;48.736;9.294;2023-07-31T10:58:43;8.90;;;1.60;;
51190;SDS011;37253;48.736;9.294;2023-07-31T11:00:44;4.25;;;1.60;;
51190;SDS011;37253;48.736;9.294;2023-07-31T11:02:55;5.90;;;1.73;;
51190;SDS011;37253;48.736;9.294;2023-07-31T11:05:07;4.63;;;1.57;;
51190;SDS011;37253;48.736;9.294;2023-07-31T11:07:10;5.78;;;1.50;;
51190;SDS011;37253;48.736;9.294;2023-07-31T11:09:13;8.63;;;1.80;;
51190;SDS011;37253;48.736;9.294;2023-07-31T11:11:14;8.38;;;2.00;;
51190;SDS011;37253;48.736;9.294;2023-07-31T11:13:16;4.50;;;1.58;;
51190;SDS011;37253;48.736;9.294;2023-07-31T11:15:16;4.03;;;1.60;;
51190;SDS011;37253;48.736;9.294;2023-07-31T11:17:17;5.28;;;1.85;;
51190;SDS011;37253;48.736;9.294;2023-07-31T11:19:23;4.50;;;1.50;;
51190;SDS011;37253;48.736;9.294;2023-07-31T11:21:24;7.13;;;1.90;;
51190;SDS011;37253;48.736;9.294;2023-07-31T11:23:25;5.18;;;1.45;;
51190;SDS011;37253;48.736;9.294;2023-07-31T11:25:25;6.30;;;1.63;;
51190;SDS011;37253;48.736;9.294;2023-07-31T11:27:27;3.95;;;1.63;;
51190;SDS011;37253;48.736;9.294;2023-07-31T11:29:28;3.95;;;1.50;;
51190;SDS011;37253;48.736;9.294;2023-07-31T11:31:29;3.70;;;1.65;;
51190;SDS011;37253;48.736;9.294;2023-07-31T11:33:29;4.93;;;1.70;;
51190;SDS011;37253;48.736;9.294;2023-07-31T11:35:33;3.47;;;1.60;;
51190;SDS011;37253;48.736;9.294;2023-07-31T11:37:39;3.97;;;1.50;;
51190;SDS011;37253;48.736;9.294;2023-07-31T11:39:42;5.30;;;1.80;;
51190;SDS011;37253;48.736;9.294;2023-07-31T11:41:43;5.25;;;1.40;;
51190;SDS011;37253;48.736;9.294;2023-07-31T11:43:43;6.63;;;1.80;;
51190;SDS011;37253;48.736;9.294;2023-07-31T11:45:49;10.40;;;1.50;;
51190;SDS011;37253;48.736;9.294;2023-07-31T11:47:54;6.13;;;1.80;;
51190;SDS011;37253;48.736;9.294;2023-07-31T11:49:55;3.43;;;1.50;;
51190;SDS011;37253;48.736;9.294;2023-07-31T11:51:56;6.40;;;1.70;;
51190;SDS011;37253;48.736;9.294;2023-07-31T11:53:57;4.85;;;1.88;;
51190;SDS011;37253;48.736;9.294;2023-07-31T11:55:59;3.67;;;1.73;;
51190;SDS011;37253;48.736;9.294;2023-07-31T11:57:59;3.10;;;1.52;;
51190;SDS011;37253;48.736;9.294;2023-07-31T12:00:00;4.10;;;1.70;;
51190;SDS011;37253;48.736;9.294;2023-07-31T12:02:00;6.25;;;1.55;;
51190;SDS011;37253;48.736;9.294;2023-07-31T12:04:01;4.20;;;1.75;;
51190;SDS011;37253;48.736;9.294;2023-07-31T12:06:01;4.00;;;1.48;;
51190;SDS011;37253;48.736;9.294;2023-07-31T12:08:02;5.90;;;1.73;;
51190;SDS011;37253;48.736;9.294;2023-07-31T12:10:08;4.28;;;1.30;;
51190;SDS011;37253;48.736;9.294;2023-07-31T12:12:09;2.97;;;1.40;;
51190;SDS011;37253;48.736;9.294;2023-07-31T12:14:19;3.78;;;1.58;;
51190;SDS011;37253;48.736;9.294;2023-07-31T12:16:20;3.58;;;1.50;;
51190;SDS011;37253;48.736;9.294;2023-07-31T12:18:20;3.15;;;1.70;;
51190;SDS011;37253;48.736;9.294;2023-07-31T12:20:21;2.78;;;1.40;;